sensor_id;sensor_type;location;lat;lon;timestamp;P1;durP1;ratioP1;P2;durP2;ratioP2
4758;SDS011;2393;50.560;12.636;2023-02-07T00:01:20;4.03;;;3.70;;
4758;SDS011;2393;50.560;12.636;2023-02-07T00:03:49;13.73;;;4.30;;
4758;SDS011;2393;50.560;12.636;2023-02-07T00:06:20;17.17;;;4.13;;
4758;SDS011;2393;50.560;12.636;2023-02-07T00:08:50;3.03;;;2.92;;
4758;SDS011;2393;50.560;12.636;2023-02-07T00:11:19;2.42;;;2.33;;
4758;SDS011;2393;50.560;12.636;2023-02-07T00:13:50;8.27;;;3.58;;
4758;SDS011;2393;50.560;12.636;2023-02-07T00:16:20;9.73;;;3.55;;
4758;SDS011;2393;50.560;12.636;2023-02-07T00:18:48;7.88;;;2.40;;
4758;SDS011;2393;50.560;12.636;2023-02-07T00:21:18;3.97;;;3.03;;
4758;SDS011;2393;50.560;12.636;2023-02-07T00:23:49;3.47;;;3.13;;
4758;SDS011;2393;50.560;12.636;2023-02-07T00:26:18;3.05;;;2.63;;
4758;SDS011;2393;50.560;12.636;2023-02-07T00:28:47;6.57;;;2.40;;
4758;SDS011;2393;50.560;12.636;2023-02-07T00:31:17;4.47;;;2.58;;
4758;SDS011;2393;50.560;12.636;2023-02-07T00:33:47;5.72;;;3.72;;
4758;SDS011;2393;50.560;12.636;2023-02-07T00:36:17;2.00;;;1.90;;
4758;SDS011;2393;50.560;12.636;2023-02-07T00:38:48;5.82;;;3.25;;
4758;SDS011;2393;50.560;12.636;2023-02-07T00:41:16;3.22;;;2.80;;
4758;SDS011;2393;50.560;12.636;2023-02-07T00:43:46;4.05;;;2.60;;
4758;SDS011;2393;50.560;12.636;2023-02-07T00:46:14;2.53;;;2.33;;
4758;SDS011;2393;50.560;12.636;2023-02-07T00:48:43;2.90;;;2.70;;
4758;SDS011;2393;50.560;12.636;2023-02-07T00:51:11;7.22;;;3.13;;
4758;SDS011;2393;50.560;12.636;2023-02-07T00:53:40;2.78;;;2.50;;
4758;SDS011;2393;50.560;12.636;2023-02-07T00:56:11;4.85;;;3.03;;
4758;SDS011;2393;50.560;12.636;2023-02-07T00:58:40;14.82;;;3.70;;
4758;SDS011;2393;50.560;12.636;2023-02-07T01:01:08;3.40;;;3.25;;
4758;SDS011;2393;50.560;12.636;2023-02-07T01:03:36;3.70;;;3.35;;
4758;SDS011;2393;50.560;12.636;2023-02-07T01:06:04;2.88;;;2.67;;
4758;SDS011;2393;50.560;12.636;2023-02-07T01:08:33;3.08;;;2.83;;
4758;SDS011;2393;50.560;12.636;2023-02-07T01:11:03;4.10;;;3.70;;
4758;SDS011;2393;50.560;12.636;2023-02-07T01:13:36;3.92;;;2.88;;
4758;SDS011;2393;50.560;12.636;2023-02-07T01:16:05;8.90;;;2.17;;
4758;SDS011;2393;50.560;12.636;2023-02-07T01:18:33;6.55;;;2.90;;
4758;SDS011;2393;50.560;12.636;2023-02-07T01:21:01;6.47;;;2.95;;
4758;SDS011;2393;50.560;12.636;2023-02-07T01:23:39;8.93;;;3.20;;
4758;SDS011;2393;50.560;12.636;2023-02-07T01:26:07;2.88;;;2.28;;
4758;SDS011;2393;50.560;12.636;2023-02-07T01:28:36;2.95;;;2.83;;
4758;SDS011;2393;50.560;12.636;2023-02-07T01:31:05;3.88;;;3.58;;
4758;SDS011;2393;50.560;12.636;2023-02-07T01:33:35;1.85;;;1.83;;
4758;SDS011;2393;50.560;12.636;2023-02-07T01:36:07;8.18;;;2.30;;
4758;SDS011;2393;50.560;12.636;2023-02-07T01:38:36;4.45;;;4.05;;
4758;SDS011;2393;50.560;12.636;2023-02-07T01:41:04;2.42;;;2.22;;
4758;SDS011;2393;50.560;12.636;2023-02-07T01:43:33;4.65;;;2.22;;
4758;SDS011;2393;50.560;12.636;2023-02-07T01:46:03;3.40;;;3.17;;
4758;SDS011;2393;50.560;12.636;2023-02-07T01:48:31;4.00;;;3.78;;
4758;SDS011;2393;50.560;12.636;2023-02-07T01:51:03;1.77;;;1.70;;
4758;SDS011;2393;50.560;12.636;2023-02-07T01:53:34;3.10;;;2.90;;
4758;SDS011;2393;50.560;12.636;2023-02-07T01:56:06;2.08;;;1.98;;
4758;SDS011;2393;50.560;12.636;2023-02-07T01:58:51;2.15;;;2.03;;
4758;SDS011;2393;50.560;12.636;2023-02-07T02:01:23;2.97;;;2.05;;
4758;SDS011;2393;50.560;12.636;2023-02-07T02:03:53;1.55;;;1.55;;
4758;SDS011;2393;50.560;12.636;2023-02-07T02:06:23;3.42;;;3.13;;
4758;SDS011;2393;50.560;12.636;2023-02-07T02:08:55;8.63;;;2.97;;
4758;SDS011;2393;50.560;12.636;2023-02-07T02:11:33;3.70;;;2.60;;
4758;SDS011;2393;50.560;12.636;2023-02-07T02:14:17;2.03;;;2.03;;
4758;SDS011;2393;50.560;12.636;2023-02-07T02:16:59;2.97;;;2.70;;
4758;SDS011;2393;50.560;12.636;2023-02-07T02:19:54;2.92;;;2.78;;
4758;SDS011;2393;50.560;12.636;2023-02-07T02:22:54;5.82;;;3.10;;
4758;SDS011;2393;50.560;12.636;2023-02-07T02:25:48;1.40;;;1.40;;
4758;SDS011;2393;50.560;12.636;2023-02-07T02:28:51;2.70;;;2.50;;
4758;SDS011;2393;50.560;12.636;2023-02-07T02:34:49;3.05;;;2.85;;
4758;SDS011;2393;50.560;12.636;2023-02-07T02:37:24;1.92;;;1.80;;
4758;SDS011;2393;50.560;12.636;2023-02-07T02:40:00;1.88;;;1.77;;
4758;SDS011;2393;50.560;12.636;2023-02-07T02:42:32;3.60;;;2.03;;
4758;SDS011;2393;50.560;12.636;2023-02-07T02:45:06;5.85;;;1.83;;
4758;SDS011;2393;50.560;12.636;2023-02-07T02:47:38;1.60;;;1.50;;
4758;SDS011;2393;50.560;12.636;2023-02-07T02:50:12;2.47;;;2.38;;
4758;SDS011;2393;50.560;12.636;2023-02-07T02:52:47;2.00;;;2.00;;
4758;SDS011;2393;50.560;12.636;2023-02-07T02:55:21;1.77;;;1.73;;
4758;SDS011;2393;50.560;12.636;2023-02-07T02:58:01;1.80;;;1.75;;
4758;SDS011;2393;50.560;12.636;2023-02-07T03:00:43;2.03;;;1.83;;
4758;SDS011;2393;50.560;12.636;2023-02-07T03:03:29;6.35;;;3.35;;
4758;SDS011;2393;50.560;12.636;2023-02-07T03:06:11;1.67;;;1.67;;
4758;SDS011;2393;50.560;12.636;2023-02-07T03:08:47;2.28;;;2.17;;
4758;SDS011;2393;50.560;12.636;2023-02-07T03:11:22;2.33;;;2.10;;
4758;SDS011;2393;50.560;12.636;2023-02-07T03:13:55;1.75;;;1.75;;
4758;SDS011;2393;50.560;12.636;2023-02-07T03:16:27;3.45;;;3.25;;
4758;SDS011;2393;50.560;12.636;2023-02-07T03:19:02;2.65;;;2.55;;
4758;SDS011;2393;50.560;12.636;2023-02-07T03:21:35;2.10;;;2.10;;
4758;SDS011;2393;50.560;12.636;2023-02-07T03:24:06;10.80;;;2.85;;
4758;SDS011;2393;50.560;12.636;2023-02-07T03:26:38;1.60;;;1.60;;
4758;SDS011;2393;50.560;12.636;2023-02-07T03:29:08;4.80;;;1.85;;
4758;SDS011;2393;50.560;12.636;2023-02-07T03:31:38;2.17;;;2.08;;
4758;SDS011;2393;50.560;12.636;2023-02-07T03:34:10;10.02;;;2.25;;
4758;SDS011;2393;50.560;12.636;2023-02-07T03:36:45;13.02;;;4.63;;
4758;SDS011;2393;50.560;12.636;2023-02-07T03:39:20;1.63;;;1.60;;
4758;SDS011;2393;50.560;12.636;2023-02-07T03:41:50;4.57;;;2.67;;
4758;SDS011;2393;50.560;12.636;2023-02-07T03:44:22;3.00;;;2.78;;
4758;SDS011;2393;50.560;12.636;2023-02-07T03:46:52;1.55;;;1.55;;
4758;SDS011;2393;50.560;12.636;2023-02-07T03:49:20;2.17;;;2.08;;
4758;SDS011;2393;50.560;12.636;2023-02-07T03:51:50;1.20;;;1.20;;
4758;SDS011;2393;50.560;12.636;2023-02-07T03:54:18;6.78;;;2.05;;
4758;SDS011;2393;50.560;12.636;2023-02-07T03:56:46;1.80;;;1.70;;
4758;SDS011;2393;50.560;12.636;2023-02-07T03:59:14;8.60;;;2.40;;
4758;SDS011;2393;50.560;12.636;2023-02-07T04:01:42;1.58;;;1.48;;
4758;SDS011;2393;50.560;12.636;2023-02-07T04:04:10;1.48;;;1.48;;
4758;SDS011;2393;50.560;12.636;2023-02-07T04:06:38;2.20;;;2.10;;
4758;SDS011;2393;50.560;12.636;2023-02-07T04:09:08;2.15;;;2.05;;
4758;SDS011;2393;50.560;12.636;2023-02-07T04:11:37;1.45;;;1.45;;
4758;SDS011;2393;50.560;12.636;2023-02-07T04:14:05;1.58;;;1.48;;
4758;SDS011;2393;50.560;12.636;2023-02-07T04:16:33;1.35;;;1.35;;
4758;SDS011;2393;50.560;12.636;2023-02-07T04:19:01;2.03;;;1.60;;
4758;SDS011;2393;50.560;12.636;2023-02-07T04:21:29;1.83;;;1.73;;
4758;SDS011;2393;50.560;12.636;2023-02-07T04:23:57;1.27;;;1.27;;
4758;SDS011;2393;50.560;12.636;2023-02-07T04:26:26;7.63;;;3.10;;
4758;SDS011;2393;50.560;12.636;2023-02-07T04:28:54;2.65;;;1.65;;
4758;SDS011;2393;50.560;12.636;2023-02-07T04:31:22;2.30;;;2.20;;
4758;SDS011;2393;50.560;12.636;2023-02-07T04:33:50;3.45;;;3.15;;
4758;SDS011;2393;50.560;12.636;2023-02-07T04:36:18;3.28;;;3.08;;
4758;SDS011;2393;50.560;12.636;2023-02-07T04:38:46;2.28;;;2.17;;
4758;SDS011;2393;50.560;12.636;2023-02-07T04:41:14;1.60;;;1.60;;
4758;SDS011;2393;50.560;12.636;2023-02-07T04:43:43;1.83;;;1.83;;
4758;SDS011;2393;50.560;12.636;2023-02-07T04:46:11;2.05;;;1.95;;
4758;SDS011;2393;50.560;12.636;2023-02-07T04:48:39;1.30;;;1.30;;
4758;SDS011;2393;50.560;12.636;2023-02-07T04:51:07;1.30;;;1.30;;
4758;SDS011;2393;50.560;12.636;2023-02-07T04:53:34;3.63;;;2.70;;
4758;SDS011;2393;50.560;12.636;2023-02-07T04:56:03;2.38;;;2.28;;
4758;SDS011;2393;50.560;12.636;2023-02-07T04:58:31;1.65;;;1.65;;
4758;SDS011;2393;50.560;12.636;2023-02-07T05:01:00;1.30;;;1.30;;
4758;SDS011;2393;50.560;12.636;2023-02-07T05:03:28;1.27;;;1.27;;
4758;SDS011;2393;50.560;12.636;2023-02-07T05:05:56;2.10;;;2.00;;
4758;SDS011;2393;50.560;12.636;2023-02-07T05:08:24;2.78;;;2.58;;
4758;SDS011;2393;50.560;12.636;2023-02-07T05:10:52;1.30;;;1.30;;
4758;SDS011;2393;50.560;12.636;2023-02-07T05:13:21;1.95;;;1.75;;
4758;SDS011;2393;50.560;12.636;2023-02-07T05:15:49;6.63;;;2.00;;
4758;SDS011;2393;50.560;12.636;2023-02-07T05:18:19;1.15;;;1.15;;
4758;SDS011;2393;50.560;12.636;2023-02-07T05:20:47;2.17;;;1.88;;
4758;SDS011;2393;50.560;12.636;2023-02-07T05:23:17;1.83;;;1.73;;
4758;SDS011;2393;50.560;12.636;2023-02-07T05:25:46;2.38;;;2.28;;
4758;SDS011;2393;50.560;12.636;2023-02-07T05:28:14;1.80;;;1.80;;
4758;SDS011;2393;50.560;12.636;2023-02-07T05:30:42;2.05;;;1.55;;
4758;SDS011;2393;50.560;12.636;2023-02-07T05:33:10;2.03;;;2.03;;
4758;SDS011;2393;50.560;12.636;2023-02-07T05:35:39;2.67;;;2.47;;
4758;SDS011;2393;50.560;12.636;2023-02-07T05:38:09;2.58;;;2.47;;
4758;SDS011;2393;50.560;12.636;2023-02-07T05:40:39;1.92;;;1.88;;
4758;SDS011;2393;50.560;12.636;2023-02-07T05:43:09;2.20;;;2.00;;
4758;SDS011;2393;50.560;12.636;2023-02-07T05:45:37;1.98;;;1.85;;
4758;SDS011;2393;50.560;12.636;2023-02-07T05:48:06;4.55;;;2.50;;
4758;SDS011;2393;50.560;12.636;2023-02-07T05:50:35;5.50;;;2.33;;
4758;SDS011;2393;50.560;12.636;2023-02-07T05:53:05;1.92;;;1.92;;
4758;SDS011;2393;50.560;12.636;2023-02-07T05:55:34;2.58;;;2.42;;
4758;SDS011;2393;50.560;12.636;2023-02-07T05:58:03;13.10;;;4.30;;
4758;SDS011;2393;50.560;12.636;2023-02-07T06:00:31;1.40;;;1.40;;
4758;SDS011;2393;50.560;12.636;2023-02-07T06:02:59;1.85;;;1.85;;
4758;SDS011;2393;50.560;12.636;2023-02-07T06:05:27;4.22;;;2.10;;
4758;SDS011;2393;50.560;12.636;2023-02-07T06:07:57;1.88;;;1.88;;
4758;SDS011;2393;50.560;12.636;2023-02-07T06:10:26;4.10;;;1.70;;
4758;SDS011;2393;50.560;12.636;2023-02-07T06:12:54;1.60;;;1.60;;
4758;SDS011;2393;50.560;12.636;2023-02-07T06:15:23;7.18;;;3.38;;
4758;SDS011;2393;50.560;12.636;2023-02-07T06:17:50;3.20;;;2.53;;
4758;SDS011;2393;50.560;12.636;2023-02-07T06:20:18;1.60;;;1.60;;
4758;SDS011;2393;50.560;12.636;2023-02-07T06:22:47;14.02;;;2.50;;
4758;SDS011;2393;50.560;12.636;2023-02-07T06:25:15;1.88;;;1.88;;
4758;SDS011;2393;50.560;12.636;2023-02-07T06:27:47;2.75;;;2.53;;
4758;SDS011;2393;50.560;12.636;2023-02-07T06:30:16;2.45;;;2.35;;
4758;SDS011;2393;50.560;12.636;2023-02-07T06:32:44;1.88;;;1.60;;
4758;SDS011;2393;50.560;12.636;2023-02-07T06:35:12;1.35;;;1.35;;
4758;SDS011;2393;50.560;12.636;2023-02-07T06:37:40;1.20;;;1.17;;
4758;SDS011;2393;50.560;12.636;2023-02-07T06:40:08;7.57;;;2.10;;
4758;SDS011;2393;50.560;12.636;2023-02-07T06:42:36;3.45;;;2.17;;
4758;SDS011;2393;50.560;12.636;2023-02-07T06:45:06;2.05;;;2.05;;
4758;SDS011;2393;50.560;12.636;2023-02-07T06:47:35;1.48;;;1.48;;
4758;SDS011;2393;50.560;12.636;2023-02-07T06:50:03;2.40;;;2.40;;
4758;SDS011;2393;50.560;12.636;2023-02-07T06:52:34;2.20;;;2.10;;
4758;SDS011;2393;50.560;12.636;2023-02-07T06:55:02;2.00;;;1.90;;
4758;SDS011;2393;50.560;12.636;2023-02-07T06:57:30;3.17;;;2.55;;
4758;SDS011;2393;50.560;12.636;2023-02-07T06:59:58;1.65;;;1.65;;
4758;SDS011;2393;50.560;12.636;2023-02-07T07:02:27;1.60;;;1.60;;
4758;SDS011;2393;50.560;12.636;2023-02-07T07:04:55;2.58;;;2.47;;
4758;SDS011;2393;50.560;12.636;2023-02-07T07:07:23;2.45;;;1.90;;
4758;SDS011;2393;50.560;12.636;2023-02-07T07:09:51;2.25;;;2.25;;
4758;SDS011;2393;50.560;12.636;2023-02-07T07:12:19;3.20;;;3.00;;
4758;SDS011;2393;50.560;12.636;2023-02-07T07:14:47;2.47;;;1.90;;
4758;SDS011;2393;50.560;12.636;2023-02-07T07:17:15;7.03;;;1.88;;
4758;SDS011;2393;50.560;12.636;2023-02-07T07:19:44;1.60;;;1.50;;
4758;SDS011;2393;50.560;12.636;2023-02-07T07:22:12;1.60;;;1.50;;
4758;SDS011;2393;50.560;12.636;2023-02-07T07:24:40;1.98;;;1.95;;
4758;SDS011;2393;50.560;12.636;2023-02-07T07:27:08;2.53;;;2.42;;
4758;SDS011;2393;50.560;12.636;2023-02-07T07:29:36;1.55;;;1.55;;
4758;SDS011;2393;50.560;12.636;2023-02-07T07:32:04;1.88;;;1.77;;
4758;SDS011;2393;50.560;12.636;2023-02-07T07:34:32;5.18;;;2.60;;
4758;SDS011;2393;50.560;12.636;2023-02-07T07:37:02;6.00;;;2.20;;
4758;SDS011;2393;50.560;12.636;2023-02-07T07:39:30;2.50;;;2.40;;
4758;SDS011;2393;50.560;12.636;2023-02-07T07:41:58;2.05;;;2.00;;
4758;SDS011;2393;50.560;12.636;2023-02-07T07:44:50;6.28;;;2.15;;
4758;SDS011;2393;50.560;12.636;2023-02-07T07:47:18;1.95;;;1.80;;
4758;SDS011;2393;50.560;12.636;2023-02-07T07:49:45;1.70;;;1.60;;
4758;SDS011;2393;50.560;12.636;2023-02-07T07:52:16;2.10;;;2.00;;
4758;SDS011;2393;50.560;12.636;2023-02-07T07:54:44;7.03;;;3.03;;
4758;SDS011;2393;50.560;12.636;2023-02-07T07:57:12;2.38;;;2.38;;
4758;SDS011;2393;50.560;12.636;2023-02-07T07:59:40;2.40;;;2.20;;
4758;SDS011;2393;50.560;12.636;2023-02-07T08:02:08;3.90;;;2.00;;
4758;SDS011;2393;50.560;12.636;2023-02-07T08:04:36;5.53;;;3.80;;
4758;SDS011;2393;50.560;12.636;2023-02-07T08:07:04;1.75;;;1.65;;
4758;SDS011;2393;50.560;12.636;2023-02-07T08:09:34;1.83;;;1.73;;
4758;SDS011;2393;50.560;12.636;2023-02-07T08:12:01;3.00;;;2.53;;
4758;SDS011;2393;50.560;12.636;2023-02-07T08:14:30;3.05;;;2.40;;
4758;SDS011;2393;50.560;12.636;2023-02-07T08:16:58;1.63;;;1.63;;
4758;SDS011;2393;50.560;12.636;2023-02-07T08:19:26;1.45;;;1.45;;
4758;SDS011;2393;50.560;12.636;2023-02-07T08:21:54;2.53;;;2.33;;
4758;SDS011;2393;50.560;12.636;2023-02-07T08:24:21;1.80;;;1.70;;
4758;SDS011;2393;50.560;12.636;2023-02-07T08:26:51;4.47;;;3.75;;
4758;SDS011;2393;50.560;12.636;2023-02-07T08:29:19;6.03;;;3.38;;
4758;SDS011;2393;50.560;12.636;2023-02-07T08:31:47;8.63;;;4.15;;
4758;SDS011;2393;50.560;12.636;2023-02-07T08:34:15;8.07;;;5.75;;
4758;SDS011;2393;50.560;12.636;2023-02-07T08:36:49;41.13;;;10.85;;
4758;SDS011;2393;50.560;12.636;2023-02-07T08:39:17;16.98;;;5.80;;
4758;SDS011;2393;50.560;12.636;2023-02-07T08:41:45;16.75;;;6.65;;
4758;SDS011;2393;50.560;12.636;2023-02-07T08:44:14;11.20;;;6.63;;
4758;SDS011;2393;50.560;12.636;2023-02-07T08:46:42;17.80;;;5.60;;
4758;SDS011;2393;50.560;12.636;2023-02-07T08:49:10;9.65;;;6.18;;
4758;SDS011;2393;50.560;12.636;2023-02-07T08:51:38;7.28;;;3.90;;
4758;SDS011;2393;50.560;12.636;2023-02-07T08:54:07;22.98;;;7.68;;
4758;SDS011;2393;50.560;12.636;2023-02-07T08:56:34;31.75;;;9.20;;
4758;SDS011;2393;50.560;12.636;2023-02-07T08:59:02;16.85;;;6.85;;
4758;SDS011;2393;50.560;12.636;2023-02-07T09:01:32;19.30;;;7.15;;
4758;SDS011;2393;50.560;12.636;2023-02-07T09:04:00;18.35;;;5.97;;
4758;SDS011;2393;50.560;12.636;2023-02-07T09:06:28;7.53;;;3.47;;
4758;SDS011;2393;50.560;12.636;2023-02-07T09:08:56;9.75;;;3.88;;
4758;SDS011;2393;50.560;12.636;2023-02-07T09:11:24;12.23;;;6.05;;
4758;SDS011;2393;50.560;12.636;2023-02-07T09:13:52;13.13;;;6.30;;
4758;SDS011;2393;50.560;12.636;2023-02-07T09:16:20;12.20;;;5.65;;
4758;SDS011;2393;50.560;12.636;2023-02-07T09:18:51;24.00;;;9.57;;
4758;SDS011;2393;50.560;12.636;2023-02-07T09:21:19;17.40;;;7.00;;
4758;SDS011;2393;50.560;12.636;2023-02-07T09:23:47;20.90;;;6.72;;
4758;SDS011;2393;50.560;12.636;2023-02-07T09:26:16;19.27;;;8.52;;
4758;SDS011;2393;50.560;12.636;2023-02-07T09:28:46;22.50;;;9.27;;
4758;SDS011;2393;50.560;12.636;2023-02-07T09:31:14;13.10;;;6.82;;
4758;SDS011;2393;50.560;12.636;2023-02-07T09:33:42;18.75;;;8.25;;
4758;SDS011;2393;50.560;12.636;2023-02-07T09:36:19;18.67;;;8.27;;
4758;SDS011;2393;50.560;12.636;2023-02-07T09:38:48;7.70;;;5.43;;
4758;SDS011;2393;50.560;12.636;2023-02-07T09:41:19;14.80;;;6.70;;
4758;SDS011;2393;50.560;12.636;2023-02-07T09:43:55;8.00;;;6.00;;
4758;SDS011;2393;50.560;12.636;2023-02-07T09:46:32;8.03;;;5.43;;
4758;SDS011;2393;50.560;12.636;2023-02-07T09:49:04;14.60;;;6.17;;
4758;SDS011;2393;50.560;12.636;2023-02-07T09:51:38;15.10;;;8.00;;
4758;SDS011;2393;50.560;12.636;2023-02-07T09:54:11;18.97;;;8.90;;
4758;SDS011;2393;50.560;12.636;2023-02-07T09:56:45;12.93;;;8.40;;
4758;SDS011;2393;50.560;12.636;2023-02-07T09:59:17;16.10;;;8.73;;
4758;SDS011;2393;50.560;12.636;2023-02-07T10:01:52;15.70;;;9.53;;
4758;SDS011;2393;50.560;12.636;2023-02-07T10:04:26;16.50;;;8.03;;
4758;SDS011;2393;50.560;12.636;2023-02-07T10:06:58;12.60;;;7.43;;
4758;SDS011;2393;50.560;12.636;2023-02-07T10:09:27;9.63;;;6.97;;
4758;SDS011;2393;50.560;12.636;2023-02-07T10:11:59;16.40;;;7.23;;
4758;SDS011;2393;50.560;12.636;2023-02-07T10:14:39;18.97;;;7.03;;
4758;SDS011;2393;50.560;12.636;2023-02-07T10:17:24;12.60;;;7.23;;
4758;SDS011;2393;50.560;12.636;2023-02-07T10:20:02;15.23;;;7.50;;
4758;SDS011;2393;50.560;12.636;2023-02-07T10:22:46;15.60;;;7.30;;
4758;SDS011;2393;50.560;12.636;2023-02-07T10:25:22;10.20;;;5.37;;
4758;SDS011;2393;50.560;12.636;2023-02-07T10:28:01;3.77;;;3.47;;
4758;SDS011;2393;50.560;12.636;2023-02-07T10:30:45;9.73;;;5.30;;
4758;SDS011;2393;50.560;12.636;2023-02-07T10:33:17;10.00;;;5.50;;
4758;SDS011;2393;50.560;12.636;2023-02-07T10:35:47;10.83;;;5.47;;
4758;SDS011;2393;50.560;12.636;2023-02-07T10:38:20;11.77;;;6.33;;
4758;SDS011;2393;50.560;12.636;2023-02-07T10:40:58;10.53;;;6.10;;
4758;SDS011;2393;50.560;12.636;2023-02-07T10:43:31;17.00;;;7.57;;
4758;SDS011;2393;50.560;12.636;2023-02-07T10:46:00;11.40;;;6.63;;
4758;SDS011;2393;50.560;12.636;2023-02-07T10:48:32;10.67;;;6.63;;
4758;SDS011;2393;50.560;12.636;2023-02-07T10:51:01;7.87;;;5.67;;
4758;SDS011;2393;50.560;12.636;2023-02-07T10:53:44;12.73;;;7.20;;
4758;SDS011;2393;50.560;12.636;2023-02-07T10:56:21;10.57;;;5.93;;
4758;SDS011;2393;50.560;12.636;2023-02-07T10:58:51;10.13;;;5.77;;
4758;SDS011;2393;50.560;12.636;2023-02-07T11:01:20;7.30;;;5.17;;
4758;SDS011;2393;50.560;12.636;2023-02-07T11:03:50;15.67;;;8.00;;
4758;SDS011;2393;50.560;12.636;2023-02-07T11:06:23;11.33;;;6.23;;
4758;SDS011;2393;50.560;12.636;2023-02-07T11:11:46;12.47;;;6.43;;
4758;SDS011;2393;50.560;12.636;2023-02-07T11:14:17;16.77;;;6.80;;
4758;SDS011;2393;50.560;12.636;2023-02-07T11:16:51;9.87;;;6.63;;
4758;SDS011;2393;50.560;12.636;2023-02-07T11:19:21;15.40;;;7.10;;
4758;SDS011;2393;50.560;12.636;2023-02-07T11:21:51;16.33;;;7.00;;
4758;SDS011;2393;50.560;12.636;2023-02-07T11:24:25;15.10;;;7.13;;
4758;SDS011;2393;50.560;12.636;2023-02-07T11:26:56;11.67;;;6.30;;
4758;SDS011;2393;50.560;12.636;2023-02-07T11:29:29;12.13;;;6.07;;
4758;SDS011;2393;50.560;12.636;2023-02-07T11:31:58;9.33;;;5.40;;
4758;SDS011;2393;50.560;12.636;2023-02-07T11:34:30;12.33;;;5.67;;
4758;SDS011;2393;50.560;12.636;2023-02-07T11:37:21;12.33;;;5.93;;
4758;SDS011;2393;50.560;12.636;2023-02-07T11:39:54;13.33;;;4.83;;
4758;SDS011;2393;50.560;12.636;2023-02-07T11:42:24;7.00;;;4.50;;
4758;SDS011;2393;50.560;12.636;2023-02-07T11:44:56;8.80;;;4.23;;
4758;SDS011;2393;50.560;12.636;2023-02-07T11:47:30;8.37;;;4.77;;
4758;SDS011;2393;50.560;12.636;2023-02-07T11:50:02;8.57;;;5.37;;
4758;SDS011;2393;50.560;12.636;2023-02-07T11:52:33;10.70;;;5.57;;
4758;SDS011;2393;50.560;12.636;2023-02-07T11:55:07;8.70;;;5.33;;
4758;SDS011;2393;50.560;12.636;2023-02-07T11:57:40;8.30;;;4.33;;
4758;SDS011;2393;50.560;12.636;2023-02-07T12:00:14;10.40;;;5.27;;
4758;SDS011;2393;50.560;12.636;2023-02-07T12:02:48;7.03;;;4.23;;
4758;SDS011;2393;50.560;12.636;2023-02-07T12:05:18;5.70;;;3.73;;
4758;SDS011;2393;50.560;12.636;2023-02-07T12:07:50;5.43;;;3.77;;
4758;SDS011;2393;50.560;12.636;2023-02-07T12:10:21;6.63;;;3.97;;
4758;SDS011;2393;50.560;12.636;2023-02-07T12:12:53;4.20;;;3.77;;
4758;SDS011;2393;50.560;12.636;2023-02-07T12:15:27;6.07;;;3.73;;
4758;SDS011;2393;50.560;12.636;2023-02-07T12:18:01;3.60;;;3.20;;
4758;SDS011;2393;50.560;12.636;2023-02-07T12:20:34;5.87;;;3.60;;
4758;SDS011;2393;50.560;12.636;2023-02-07T12:23:05;4.50;;;3.20;;
4758;SDS011;2393;50.560;12.636;2023-02-07T12:26:00;4.73;;;2.70;;
4758;SDS011;2393;50.560;12.636;2023-02-07T12:28:33;3.80;;;2.83;;
4758;SDS011;2393;50.560;12.636;2023-02-07T12:31:12;4.57;;;2.20;;
4758;SDS011;2393;50.560;12.636;2023-02-07T12:33:46;4.63;;;3.23;;
4758;SDS011;2393;50.560;12.636;2023-02-07T12:36:22;3.10;;;2.80;;
4758;SDS011;2393;50.560;12.636;2023-02-07T12:38:55;5.43;;;3.20;;
4758;SDS011;2393;50.560;12.636;2023-02-07T12:41:30;4.00;;;3.20;;
4758;SDS011;2393;50.560;12.636;2023-02-07T12:44:03;8.57;;;3.73;;
4758;SDS011;2393;50.560;12.636;2023-02-07T12:46:39;5.80;;;3.33;;
4758;SDS011;2393;50.560;12.636;2023-02-07T12:49:18;3.33;;;2.93;;
4758;SDS011;2393;50.560;12.636;2023-02-07T12:51:55;3.27;;;2.70;;
4758;SDS011;2393;50.560;12.636;2023-02-07T12:54:37;7.13;;;4.20;;
4758;SDS011;2393;50.560;12.636;2023-02-07T12:57:19;8.10;;;4.67;;
4758;SDS011;2393;50.560;12.636;2023-02-07T13:00:03;5.17;;;3.53;;
4758;SDS011;2393;50.560;12.636;2023-02-07T13:02:39;5.87;;;3.63;;
4758;SDS011;2393;50.560;12.636;2023-02-07T13:05:29;6.93;;;3.73;;
4758;SDS011;2393;50.560;12.636;2023-02-07T13:08:10;3.47;;;3.10;;
4758;SDS011;2393;50.560;12.636;2023-02-07T13:10:49;6.23;;;2.90;;
4758;SDS011;2393;50.560;12.636;2023-02-07T13:13:29;5.80;;;2.37;;
4758;SDS011;2393;50.560;12.636;2023-02-07T13:16:02;7.87;;;3.47;;
4758;SDS011;2393;50.560;12.636;2023-02-07T13:18:38;3.83;;;3.00;;
4758;SDS011;2393;50.560;12.636;2023-02-07T13:21:16;13.37;;;4.97;;
4758;SDS011;2393;50.560;12.636;2023-02-07T13:23:49;7.47;;;3.30;;
4758;SDS011;2393;50.560;12.636;2023-02-07T13:26:17;4.40;;;3.43;;
4758;SDS011;2393;50.560;12.636;2023-02-07T13:28:52;7.23;;;4.63;;
4758;SDS011;2393;50.560;12.636;2023-02-07T13:31:23;7.90;;;4.93;;
4758;SDS011;2393;50.560;12.636;2023-02-07T13:33:56;9.87;;;5.10;;
4758;SDS011;2393;50.560;12.636;2023-02-07T13:36:29;12.23;;;4.97;;
4758;SDS011;2393;50.560;12.636;2023-02-07T13:39:06;9.87;;;3.97;;
4758;SDS011;2393;50.560;12.636;2023-02-07T13:41:44;7.50;;;3.90;;
4758;SDS011;2393;50.560;12.636;2023-02-07T13:44:25;8.13;;;4.50;;
4758;SDS011;2393;50.560;12.636;2023-02-07T13:47:15;7.97;;;4.27;;
4758;SDS011;2393;50.560;12.636;2023-02-07T13:49:59;10.07;;;5.20;;
4758;SDS011;2393;50.560;12.636;2023-02-07T13:52:33;10.63;;;5.60;;
4758;SDS011;2393;50.560;12.636;2023-02-07T13:55:14;12.63;;;5.80;;
4758;SDS011;2393;50.560;12.636;2023-02-07T13:57:50;13.43;;;5.93;;
4758;SDS011;2393;50.560;12.636;2023-02-07T14:03:27;12.50;;;6.03;;
4758;SDS011;2393;50.560;12.636;2023-02-07T14:06:13;12.53;;;6.13;;
4758;SDS011;2393;50.560;12.636;2023-02-07T14:08:50;7.50;;;5.53;;
4758;SDS011;2393;50.560;12.636;2023-02-07T14:11:29;12.43;;;6.90;;
4758;SDS011;2393;50.560;12.636;2023-02-07T14:14:04;16.90;;;6.00;;
4758;SDS011;2393;50.560;12.636;2023-02-07T14:16:45;9.27;;;5.87;;
4758;SDS011;2393;50.560;12.636;2023-02-07T14:19:46;13.27;;;5.60;;
4758;SDS011;2393;50.560;12.636;2023-02-07T14:22:14;13.23;;;6.50;;
4758;SDS011;2393;50.560;12.636;2023-02-07T14:24:47;11.67;;;7.47;;
4758;SDS011;2393;50.560;12.636;2023-02-07T14:27:25;14.20;;;7.10;;
4758;SDS011;2393;50.560;12.636;2023-02-07T14:30:08;14.47;;;7.20;;
4758;SDS011;2393;50.560;12.636;2023-02-07T14:32:48;16.47;;;7.33;;
4758;SDS011;2393;50.560;12.636;2023-02-07T14:35:43;17.77;;;7.47;;
4758;SDS011;2393;50.560;12.636;2023-02-07T14:38:29;14.40;;;7.73;;
4758;SDS011;2393;50.560;12.636;2023-02-07T14:41:03;14.43;;;7.87;;
4758;SDS011;2393;50.560;12.636;2023-02-07T14:43:46;13.77;;;7.53;;
4758;SDS011;2393;50.560;12.636;2023-02-07T14:46:34;16.90;;;8.43;;
4758;SDS011;2393;50.560;12.636;2023-02-07T14:49:05;19.47;;;8.17;;
4758;SDS011;2393;50.560;12.636;2023-02-07T14:51:40;11.30;;;7.57;;
4758;SDS011;2393;50.560;12.636;2023-02-07T14:54:13;10.87;;;6.87;;
4758;SDS011;2393;50.560;12.636;2023-02-07T14:56:49;9.63;;;5.00;;
4758;SDS011;2393;50.560;12.636;2023-02-07T14:59:28;10.83;;;6.73;;
4758;SDS011;2393;50.560;12.636;2023-02-07T15:05:14;14.00;;;7.10;;
4758;SDS011;2393;50.560;12.636;2023-02-07T15:07:45;15.73;;;6.90;;
4758;SDS011;2393;50.560;12.636;2023-02-07T15:10:14;14.57;;;7.38;;
4758;SDS011;2393;50.560;12.636;2023-02-07T15:12:43;16.50;;;7.82;;
4758;SDS011;2393;50.560;12.636;2023-02-07T15:15:16;10.90;;;6.25;;
4758;SDS011;2393;50.560;12.636;2023-02-07T15:17:47;12.55;;;6.72;;
4758;SDS011;2393;50.560;12.636;2023-02-07T15:20:18;14.98;;;7.38;;
4758;SDS011;2393;50.560;12.636;2023-02-07T15:22:48;9.73;;;5.88;;
4758;SDS011;2393;50.560;12.636;2023-02-07T15:25:19;15.05;;;6.35;;
4758;SDS011;2393;50.560;12.636;2023-02-07T15:30:56;15.23;;;7.25;;
4758;SDS011;2393;50.560;12.636;2023-02-07T15:33:26;13.63;;;7.38;;
4758;SDS011;2393;50.560;12.636;2023-02-07T15:35:58;15.70;;;7.25;;
4758;SDS011;2393;50.560;12.636;2023-02-07T15:38:25;17.63;;;7.30;;
4758;SDS011;2393;50.560;12.636;2023-02-07T15:40:54;13.88;;;7.80;;
4758;SDS011;2393;50.560;12.636;2023-02-07T15:43:24;13.45;;;8.13;;